Time;durP1;ratioP1;P1;durP2;ratioP2;P2;SDS_P1;SDS_P2;PMS_P1;PMS_P2;Temp;Humidity;BMP_temperature;BMP_pressure;BME280_temperature;BME280_humidity;BME280_pressure;Samples;Min_cycle;Max_cycle;Signal;HPM_P1;HPM_P2
2023/07/18 00:01:07;;;;;;;;;;;;;;;;;;4905450;29;19927;-77
2023/07/18 00:03:39;;;;;;;;;;;;;;;;;;4917830;29;19927;-77
2023/07/18 00:06:08;;;;;;;;;;;;;;;;;;4917724;29;20312;-77
2023/07/18 00:08:40;;;;;;;;;;;;;;;;;;4917281;29;19927;-78
2023/07/18 00:11:08;;;;;;;;;;;;;;;;;;4918947;29;19927;-77
2023/07/18 00:13:35;;;;;;;;;;;;;;;;;;4918627;29;19935;-77
2023/07/18 00:16:03;;;;;;;;;;;;;;;;;;4917235;29;20296;-77
2023/07/18 00:18:30;;;;;;;;;;;;;;;;;;4917537;29;19927;-77
2023/07/18 00:20:58;;;;;;;;;;;;;;;;;;4908191;29;20332;-77
2023/07/18 00:23:26;;;;;;;;;;;;;;;;;;4906791;29;19927;-77
2023/07/18 00:25:53;;;;;;;;;;;;;;;;;;4918374;29;19950;-79
2023/07/18 00:28:21;;;;;;;;;;;;;;;;;;4898066;29;19927;-78
2023/07/18 00:30:49;;;;;;;;;;;;;;;;;;4898273;29;19927;-77
2023/07/18 00:33:16;;;;;;;;;;;;;;;;;;4899564;29;19950;-77
2023/07/18 00:35:44;;;;;;;;;;;;;;;;;;4914598;29;20730;-78
2023/07/18 00:38:12;;;;;;;;;;;;;;;;;;4917054;29;20409;-77
2023/07/18 00:40:41;;;;;;;;;;;;;;;;;;4916598;29;19931;-77
2023/07/18 00:43:14;;;;;;;;;;;;;;;;;;4909099;29;19927;-78
2023/07/18 00:45:41;;;;;;;;;;;;;;;;;;4935536;29;19926;-77
2023/07/18 00:48:09;;;;;;;;;;;;;;;;;;4935305;29;19927;-77
2023/07/18 00:50:37;;;;;;;;;;;;;;;;;;4929287;29;20277;-77
2023/07/18 00:53:06;;;;;;;;;;;;;;;;;;4925222;29;19934;-78
2023/07/18 00:55:33;;;;;;;;;;;;;;;;;;4931162;29;19934;-79
2023/07/18 00:58:01;;;;;;;;;;;;;;;;;;4907290;29;19939;-78
2023/07/18 01:00:29;;;;;;;;;;;;;;;;;;4900952;29;19934;-78
2023/07/18 01:02:56;;;;;;;;;;;;;;;;;;4917601;29;19928;-77
2023/07/18 01:05:24;;;;;;;;;;;;;;;;;;4908840;29;19934;-77
2023/07/18 01:07:51;;;;;;;;;;;;;;;;;;4906750;29;20383;-77
2023/07/18 01:10:23;;;;;;;;;;;;;;;;;;4905433;29;19927;-77
2023/07/18 01:12:50;;;;;;;;;;;;;;;;;;4909484;29;19935;-77
2023/07/18 01:15:18;;;;;;;;;;;;;;;;;;4903611;29;19934;-77
2023/07/18 01:17:45;;;;;;;;;;;;;;;;;;4902135;29;20303;-78
2023/07/18 01:20:15;;;;;;;;;;;;;;;;;;4916652;29;19934;-78
2023/07/18 01:22:43;;;;;;;;;;;;;;;;;;4922204;29;19928;-77
2023/07/18 01:25:14;;;;;;;;;;;;;;;;;;4912013;29;19927;-80
2023/07/18 01:27:46;;;;;;;;;;;;;;;;;;4926035;29;19934;-77
2023/07/18 01:30:14;;;;;;;;;;;;;;;;;;4932116;29;20285;-77
2023/07/18 01:32:42;;;;;;;;;;;;;;;;;;4915022;29;19927;-78
2023/07/18 01:35:14;;;;;;;;;;;;;;;;;;4926174;29;20299;-79
2023/07/18 01:37:44;;;;;;;;;;;;;;;;;;4930035;29;20091;-78
2023/07/18 01:40:12;;;;;;;;;;;;;;;;;;4914834;29;19950;-78
2023/07/18 01:42:40;;;;;;;;;;;;;;;;;;4914365;29;19938;-79
2023/07/18 01:45:09;;;;;;;;;;;;;;;;;;4923708;29;19927;-77
2023/07/18 01:47:37;;;;;;;;;;;;;;;;;;4921511;29;19927;-78
2023/07/18 01:50:05;;;;;;;;;;;;;;;;;;4914773;29;19934;-78
2023/07/18 01:52:33;;;;;;;;;;;;;;;;;;4916726;29;19927;-79
2023/07/18 01:55:00;;;;;;;;;;;;;;;;;;4915170;29;19935;-77
2023/07/18 01:57:28;;;;;;;;;;;;;;;;;;4916284;29;19927;-77
2023/07/18 01:59:55;;;;;;;;;;;;;;;;;;4914331;29;19927;-78
2023/07/18 02:02:23;;;;;;;;;;;;;;;;;;4915355;29;19934;-79
2023/07/18 02:04:51;;;;;;;;;;;;;;;;;;4915036;29;19954;-79
2023/07/18 02:07:18;;;;;;;;;;;;;;;;;;4915856;29;19935;-78
2023/07/18 02:09:46;;;;;;;;;;;;;;;;;;4915723;29;20414;-78
2023/07/18 02:12:14;;;;;;;;;;;;;;;;;;4916646;29;19927;-78
2023/07/18 02:14:41;;;;;;;;;;;;;;;;;;4915118;29;19934;-78
2023/07/18 02:17:09;;;;;;;;;;;;;;;;;;4916004;29;19934;-78
2023/07/18 02:19:41;;;;;;;;;;;;;;;;;;4929391;29;19927;-78
2023/07/18 02:22:11;;;;;;;;;;;;;;;;;;4926512;29;19938;-77
2023/07/18 02:24:38;;;;;;;;;;;;;;;;;;4921657;29;19938;-77
2023/07/18 02:27:06;;;;;;;;;;;;;;;;;;4915898;29;19938;-77
2023/07/18 02:29:33;;;;;;;;;;;;;;;;;;4915419;29;20572;-77
2023/07/18 02:32:01;;;;;;;;;;;;;;;;;;4915503;29;19931;-79
2023/07/18 02:34:28;;;;;;;;;;;;;;;;;;4916903;29;19934;-78
2023/07/18 02:36:56;;;;;;;;;;;;;;;;;;4915651;29;20403;-78
2023/07/18 02:39:24;;;;;;;;;;;;;;;;;;4915279;29;19927;-77
2023/07/18 02:41:51;;;;;;;;;;;;;;;;;;4917352;29;20279;-78
2023/07/18 02:44:19;;;;;;;;;;;;;;;;;;4918654;29;19931;-77
2023/07/18 02:46:46;;;;;;;;;;;;;;;;;;4921052;29;19931;-78
2023/07/18 02:49:14;;;;;;;;;;;;;;;;;;4915480;29;19927;-77
2023/07/18 02:51:41;;;;;;;;;;;;;;;;;;4915106;29;20426;-77
2023/07/18 02:54:09;;;;;;;;;;;;;;;;;;4916750;29;19934;-78
2023/07/18 02:56:36;;;;;;;;;;;;;;;;;;4915470;29;19935;-78
2023/07/18 02:59:04;;;;;;;;;;;;;;;;;;4915200;29;19927;-77
2023/07/18 03:01:31;;;;;;;;;;;;;;;;;;4915457;29;19938;-76
2023/07/18 03:03:59;;;;;;;;;;;;;;;;;;4915156;29;19927;-78
2023/07/18 03:06:27;;;;;;;;;;;;;;;;;;4915364;29;19927;-77
2023/07/18 03:08:55;;;;;;;;;;;;;;;;;;4925091;29;19934;-80
2023/07/18 03:11:23;;;;;;;;;;;;;;;;;;4924053;29;19927;-77
2023/07/18 03:13:50;;;;;;;;;;;;;;;;;;4921609;29;19931;-77
2023/07/18 03:16:18;;;;;;;;;;;;;;;;;;4919660;29;19934;-77
2023/07/18 03:18:48;;;;;;;;;;;;;;;;;;4913743;29;19934;-77
2023/07/18 03:21:16;;;;;;;;;;;;;;;;;;4903073;29;20581;-77
2023/07/18 03:23:44;;;;;;;;;;;;;;;;;;4918141;29;19935;-78
2023/07/18 03:26:12;;;;;;;;;;;;;;;;;;4918557;29;19935;-77
2023/07/18 03:28:40;;;;;;;;;;;;;;;;;;4920964;29;20808;-78
2023/07/18 03:31:08;;;;;;;;;;;;;;;;;;4926807;29;19934;-79
2023/07/18 03:33:35;;;;;;;;;;;;;;;;;;4899410;29;20647;-78
2023/07/18 03:36:08;;;;;;;;;;;;;;;;;;4931698;29;19926;-78
2023/07/18 03:38:35;;;;;;;;;;;;;;;;;;4934578;29;20575;-78
2023/07/18 03:41:03;;;;;;;;;;;;;;;;;;4921654;29;19927;-78
2023/07/18 03:43:35;;;;;;;;;;;;;;;;;;4932664;29;20300;-77
2023/07/18 03:46:03;;;;;;;;;;;;;;;;;;4927664;29;19928;-77
2023/07/18 03:48:30;;;;;;;;;;;;;;;;;;4915676;29;19950;-78
2023/07/18 03:50:58;;;;;;;;;;;;;;;;;;4900517;29;19943;-77
2023/07/18 03:53:30;;;;;;;;;;;;;;;;;;4898873;29;19935;-77
2023/07/18 03:55:58;;;;;;;;;;;;;;;;;;4883273;29;19928;-77
2023/07/18 03:58:25;;;;;;;;;;;;;;;;;;4914413;29;19928;-79
2023/07/18 04:00:53;;;;;;;;;;;;;;;;;;4898880;29;19974;-78
2023/07/18 04:03:27;;;;;;;;;;;;;;;;;;4904368;29;19934;-78
2023/07/18 04:05:55;;;;;;;;;;;;;;;;;;4917321;29;19927;-78
2023/07/18 04:08:22;;;;;;;;;;;;;;;;;;4918669;29;19927;-78
2023/07/18 04:10:55;;;;;;;;;;;;;;;;;;4918819;29;19928;-78
2023/07/18 04:13:22;;;;;;;;;;;;;;;;;;4924759;29;20379;-78
2023/07/18 04:15:50;;;;;;;;;;;;;;;;;;4923168;29;19927;-79
2023/07/18 04:18:22;;;;;;;;;;;;;;;;;;4923900;29;19938;-78
2023/07/18 04:20:50;;;;;;;;;;;;;;;;;;4922918;29;19927;-77
2023/07/18 04:23:18;;;;;;;;;;;;;;;;;;4932024;29;19934;-78
2023/07/18 04:25:46;;;;;;;;;;;;;;;;;;4906850;29;19927;-78
2023/07/18 04:28:13;;;;;;;;;;;;;;;;;;4907293;29;19934;-78
2023/07/18 04:30:46;;;;;;;;;;;;;;;;;;4924629;29;19927;-78
2023/07/18 04:33:14;;;;;;;;;;;;;;;;;;4927060;29;19935;-78
2023/07/18 04:35:41;;;;;;;;;;;;;;;;;;4913959;29;19927;-78
2023/07/18 04:38:14;;;;;;;;;;;;;;;;;;4922855;29;19934;-77
2023/07/18 04:40:41;;;;;;;;;;;;;;;;;;4921641;29;20004;-79
2023/07/18 04:43:09;;;;;;;;;;;;;;;;;;4930800;29;19934;-79
2023/07/18 04:45:36;;;;;;;;;;;;;;;;;;4936306;29;19927;-79
2023/07/18 04:48:04;;;;;;;;;;;;;;;;;;4917782;29;19927;-77
2023/07/18 04:50:31;;;;;;;;;;;;;;;;;;4916733;29;19950;-77
2023/07/18 04:52:59;;;;;;;;;;;;;;;;;;4915963;29;19927;-80
2023/07/18 04:55:26;;;;;;;;;;;;;;;;;;4919542;29;19931;-78
2023/07/18 04:57:54;;;;;;;;;;;;;;;;;;4922306;29;19927;-77
2023/07/18 05:00:21;;;;;;;;;;;;;;;;;;4914394;29;19931;-79
2023/07/18 05:02:49;;;;;;;;;;;;;;;;;;4915248;29;19927;-78
2023/07/18 05:05:17;;;;;;;;;;;;;;;;;;4918534;29;19930;-77
2023/07/18 05:07:47;;;;;;;;;;;;;;;;;;4914414;29;19938;-78
2023/07/18 05:10:14;;;;;;;;;;;;;;;;;;4914623;29;20732;-78
2023/07/18 05:12:47;;;;;;;;;;;;;;;;;;4916058;29;19927;-78
2023/07/18 05:15:14;;;;;;;;;;;;;;;;;;4921768;29;19927;-78
2023/07/18 05:17:47;;;;;;;;;;;;;;;;;;4904167;29;19938;-78
2023/07/18 05:20:20;;;;;;;;;;;;;;;;;;4919681;29;19927;-79
2023/07/18 05:22:52;;;;;;;;;;;;;;;;;;4921379;29;19930;-78
2023/07/18 05:25:20;;;;;;;;;;;;;;;;;;4916937;29;20679;-77
2023/07/18 05:27:52;;;;;;;;;;;;;;;;;;4917434;29;19938;-78
2023/07/18 05:30:20;;;;;;;;;;;;;;;;;;4904995;29;19935;-79
2023/07/18 05:32:48;;;;;;;;;;;;;;;;;;4923081;29;19934;-78
2023/07/18 05:35:15;;;;;;;;;;;;;;;;;;4917372;29;20398;-79
2023/07/18 05:37:43;;;;;;;;;;;;;;;;;;4916914;29;19931;-78
2023/07/18 05:40:10;;;;;;;;;;;;;;;;;;4903318;29;19927;-79
2023/07/18 05:42:38;;;;;;;;;;;;;;;;;;4916905;29;19927;-77
2023/07/18 05:45:06;;;;;;;;;;;;;;;;;;4920796;29;19928;-77
2023/07/18 05:47:39;;;;;;;;;;;;;;;;;;4919172;29;19931;-78
2023/07/18 05:50:06;;;;;;;;;;;;;;;;;;4917993;29;19927;-78
2023/07/18 05:52:34;;;;;;;;;;;;;;;;;;4924156;29;19927;-76
2023/07/18 05:55:02;;;;;;;;;;;;;;;;;;4916301;29;19927;-78
2023/07/18 05:57:29;;;;;;;;;;;;;;;;;;4915459;29;19927;-79
2023/07/18 05:59:57;;;;;;;;;;;;;;;;;;4916927;29;20407;-78
2023/07/18 06:02:24;;;;;;;;;;;;;;;;;;4919883;29;19927;-81
2023/07/18 06:04:52;;;;;;;;;;;;;;;;;;4920302;29;19930;-77
2023/07/18 06:07:20;;;;;;;;;;;;;;;;;;4915971;29;20396;-78
2023/07/18 06:09:51;;;;;;;;;;;;;;;;;;4916951;29;19942;-80
2023/07/18 06:12:23;;;;;;;;;;;;;;;;;;4905635;29;19930;-80
2023/07/18 06:14:51;;;;;;;;;;;;;;;;;;4918534;29;20376;-78
2023/07/18 06:17:19;;;;;;;;;;;;;;;;;;4917690;29;19927;-79
2023/07/18 06:19:52;;;;;;;;;;;;;;;;;;4918033;29;19927;-79
2023/07/18 06:22:19;;;;;;;;;;;;;;;;;;4900808;29;20388;-80
2023/07/18 06:24:52;;;;;;;;;;;;;;;;;;4922278;29;19938;-80
2023/07/18 06:27:19;;;;;;;;;;;;;;;;;;4922967;29;19934;-78
2023/07/18 06:29:52;;;;;;;;;;;;;;;;;;4918004;29;19949;-78
2023/07/18 06:32:25;;;;;;;;;;;;;;;;;;4916789;29;20410;-79
2023/07/18 06:34:52;;;;;;;;;;;;;;;;;;4920591;29;19931;-78
2023/07/18 06:37:20;;;;;;;;;;;;;;;;;;4920878;29;20893;-77
2023/07/18 06:39:50;;;;;;;;;;;;;;;;;;4919748;29;19931;-78
2023/07/18 06:42:17;;;;;;;;;;;;;;;;;;4904416;29;19935;-79
2023/07/18 06:44:45;;;;;;;;;;;;;;;;;;4919865;29;19934;-78
2023/07/18 06:47:12;;;;;;;;;;;;;;;;;;4919403;29;19931;-80
2023/07/18 06:49:41;;;;;;;;;;;;;;;;;;4918041;29;19930;-79
2023/07/18 06:52:09;;;;;;;;;;;;;;;;;;4921868;29;20376;-77
2023/07/18 06:54:36;;;;;;;;;;;;;;;;;;4927931;29;19938;-77
2023/07/18 06:57:10;;;;;;;;;;;;;;;;;;4920922;29;19931;-77
2023/07/18 06:59:43;;;;;;;;;;;;;;;;;;4926702;29;19927;-78
2023/07/18 07:02:15;;;;;;;;;;;;;;;;;;4901111;29;19935;-79
2023/07/18 07:04:43;;;;;;;;;;;;;;;;;;4880482;29;19942;-81
2023/07/18 07:07:13;;;;;;;;;;;;;;;;;;4894217;29;19935;-80
2023/07/18 07:09:41;;;;;;;;;;;;;;;;;;4892819;29;19942;-79
2023/07/18 07:12:08;;;;;;;;;;;;;;;;;;4875672;29;19942;-76
2023/07/18 07:14:36;;;;;;;;;;;;;;;;;;4907604;29;19931;-78
2023/07/18 07:17:03;;;;;;;;;;;;;;;;;;4900558;29;19935;-78
2023/07/18 07:19:31;;;;;;;;;;;;;;;;;;4888871;29;19935;-79
2023/07/18 07:22:03;;;;;;;;;;;;;;;;;;4891144;29;20394;-80
2023/07/18 07:24:31;;;;;;;;;;;;;;;;;;4890889;29;20296;-77
2023/07/18 07:26:59;;;;;;;;;;;;;;;;;;4889896;29;19943;-79
2023/07/18 07:29:26;;;;;;;;;;;;;;;;;;4889007;29;19942;-79
2023/07/18 07:31:59;;;;;;;;;;;;;;;;;;4882518;29;19931;-76
2023/07/18 07:34:29;;;;;;;;;;;;;;;;;;4889955;29;19931;-79
2023/07/18 07:36:56;;;;;;;;;;;;;;;;;;4894068;29;19931;-79
2023/07/18 07:39:24;;;;;;;;;;;;;;;;;;4890836;29;19946;-79
2023/07/18 07:41:56;;;;;;;;;;;;;;;;;;4891397;29;19934;-78
2023/07/18 07:44:24;;;;;;;;;;;;;;;;;;4890368;29;19935;-78
2023/07/18 07:46:52;;;;;;;;;;;;;;;;;;4893238;29;19942;-79
2023/07/18 07:49:19;;;;;;;;;;;;;;;;;;4892800;29;19953;-79
2023/07/18 07:51:47;;;;;;;;;;;;;;;;;;4893663;29;19969;-80
2023/07/18 07:54:14;;;;;;;;;;;;;;;;;;4886354;29;19942;-81
2023/07/18 07:56:42;;;;;;;;;;;;;;;;;;4890693;29;19982;-78
2023/07/18 07:59:09;;;;;;;;;;;;;;;;;;4891613;29;20812;-78
2023/07/18 08:01:42;;;;;;;;;;;;;;;;;;4887225;29;20307;-80
2023/07/18 08:04:15;;;;;;;;;;;;;;;;;;4883376;29;19939;-79
2023/07/18 08:06:47;;;;;;;;;;;;;;;;;;4885826;29;20556;-78
2023/07/18 08:09:15;;;;;;;;;;;;;;;;;;4879579;29;19942;-80
2023/07/18 08:11:47;;;;;;;;;;;;;;;;;;4892788;29;20296;-77
2023/07/18 08:14:21;;;;;;;;;;;;;;;;;;4897778;29;19935;-79
2023/07/18 08:16:54;;;;;;;;;;;;;;;;;;4898160;29;20461;-78
2023/07/18 08:19:22;;;;;;;;;;;;;;;;;;4893524;29;19935;-81
2023/07/18 08:21:50;;;;;;;;;;;;;;;;;;4891155;29;19935;-80
2023/07/18 08:24:18;;;;;;;;;;;;;;;;;;4887532;29;19935;-78
2023/07/18 08:26:45;;;;;;;;;;;;;;;;;;4890502;29;19930;-81
2023/07/18 08:29:13;;;;;;;;;;;;;;;;;;4892071;29;19939;-78
2023/07/18 08:31:41;;;;;;;;;;;;;;;;;;4896337;29;19953;-80
2023/07/18 08:34:13;;;;;;;;;;;;;;;;;;4878026;29;20390;-78
2023/07/18 08:36:42;;;;;;;;;;;;;;;;;;4883871;29;19930;-79
2023/07/18 08:39:09;;;;;;;;;;;;;;;;;;4887238;29;19931;-80
2023/07/18 08:41:37;;;;;;;;;;;;;;;;;;4887336;29;19942;-80
2023/07/18 08:44:07;;;;;;;;;;;;;;;;;;4890687;29;20674;-80
2023/07/18 08:46:37;;;;;;;;;;;;;;;;;;4886580;29;21044;-81
2023/07/18 08:49:09;;;;;;;;;;;;;;;;;;4891298;29;20327;-81
2023/07/18 08:51:37;;;;;;;;;;;;;;;;;;4884054;29;21065;-80
2023/07/18 08:54:04;;;;;;;;;;;;;;;;;;4887147;29;19935;-78
2023/07/18 08:56:32;;;;;;;;;;;;;;;;;;4884520;29;20315;-79
2023/07/18 08:58:59;;;;;;;;;;;;;;;;;;4885057;29;19985;-81
2023/07/18 09:01:32;;;;;;;;;;;;;;;;;;4857859;29;20303;-80
2023/07/18 09:03:59;;;;;;;;;;;;;;;;;;4891506;29;19935;-82
2023/07/18 09:06:27;;;;;;;;;;;;;;;;;;4889216;29;20313;-81
2023/07/18 09:08:55;;;;;;;;;;;;;;;;;;4891538;29;20340;-78
2023/07/18 09:11:24;;;;;;;;;;;;;;;;;;4874096;29;20402;-80
2023/07/18 09:13:57;;;;;;;;;;;;;;;;;;4884752;29;19942;-78
2023/07/18 09:16:29;;;;;;;;;;;;;;;;;;4892760;29;19935;-78
2023/07/18 09:18:57;;;;;;;;;;;;;;;;;;4871028;29;19935;-80
2023/07/18 09:21:24;;;;;;;;;;;;;;;;;;4886574;29;19958;-81
2023/07/18 09:23:57;;;;;;;;;;;;;;;;;;4880351;29;19935;-81
2023/07/18 09:26:24;;;;;;;;;;;;;;;;;;4884410;29;20477;-81
2023/07/18 09:28:52;;;;;;;;;;;;;;;;;;4885109;29;19935;-81
2023/07/18 09:31:24;;;;;;;;;;;;;;;;;;4889465;29;19942;-81
2023/07/18 09:33:52;;;;;;;;;;;;;;;;;;4883688;29;19942;-80
2023/07/18 09:36:25;;;;;;;;;;;;;;;;;;4879501;29;19935;-82
2023/07/18 09:38:53;;;;;;;;;;;;;;;;;;4882538;29;19935;-80
2023/07/18 09:41:20;;;;;;;;;;;;;;;;;;4887859;29;19932;-77
2023/07/18 09:43:48;;;;;;;;;;;;;;;;;;4890789;29;19935;-81
2023/07/18 09:46:15;;;;;;;;;;;;;;;;;;4887988;29;19934;-79
2023/07/18 09:48:43;;;;;;;;;;;;;;;;;;4888215;29;20406;-81
2023/07/18 09:51:11;;;;;;;;;;;;;;;;;;4871003;29;19970;-80
2023/07/18 09:53:38;;;;;;;;;;;;;;;;;;4888007;29;19935;-79
2023/07/18 09:56:06;;;;;;;;;;;;;;;;;;4877505;29;20299;-81
2023/07/18 09:58:34;;;;;;;;;;;;;;;;;;4894308;29;19943;-78
2023/07/18 10:01:06;;;;;;;;;;;;;;;;;;4855229;29;20339;-78
2023/07/18 10:03:34;;;;;;;;;;;;;;;;;;4896286;29;20417;-81
2023/07/18 10:06:02;;;;;;;;;;;;;;;;;;4888497;29;20193;-80
2023/07/18 10:08:34;;;;;;;;;;;;;;;;;;4887664;29;20176;-81
2023/07/18 10:11:04;;;;;;;;;;;;;;;;;;4890013;29;19935;-81
2023/07/18 10:13:32;;;;;;;;;;;;;;;;;;4890030;29;19935;-82
2023/07/18 10:16:00;;;;;;;;;;;;;;;;;;4887521;29;19942;-81
2023/07/18 10:18:27;;;;;;;;;;;;;;;;;;4886472;29;19935;-81
2023/07/18 10:21:00;;;;;;;;;;;;;;;;;;4875906;29;19947;-80
2023/07/18 10:23:33;;;;;;;;;;;;;;;;;;4893277;29;20380;-79
2023/07/18 10:26:00;;;;;;;;;;;;;;;;;;4883198;29;19931;-80
2023/07/18 10:28:28;;;;;;;;;;;;;;;;;;4895970;29;19935;-80
2023/07/18 10:31:00;;;;;;;;;;;;;;;;;;4897528;29;19935;-79
2023/07/18 10:33:28;;;;;;;;;;;;;;;;;;4895078;29;19942;-78
2023/07/18 10:35:55;;;;;;;;;;;;;;;;;;4903484;29;19935;-80
2023/07/18 10:38:25;;;;;;;;;;;;;;;;;;4897727;29;19935;-81
2023/07/18 10:40:58;;;;;;;;;;;;;;;;;;4898215;29;19935;-80
2023/07/18 10:43:30;;;;;;;;;;;;;;;;;;4897438;29;19934;-80
2023/07/18 10:45:58;;;;;;;;;;;;;;;;;;4895561;29;19946;-79
2023/07/18 10:48:26;;;;;;;;;;;;;;;;;;4894172;29;19935;-80
2023/07/18 10:50:53;;;;;;;;;;;;;;;;;;4891754;29;20436;-80
2023/07/18 10:53:23;;;;;;;;;;;;;;;;;;4891225;29;19927;-79
2023/07/18 10:55:52;;;;;;;;;;;;;;;;;;4891969;29;20603;-81
2023/07/18 10:58:24;;;;;;;;;;;;;;;;;;4892976;29;19935;-79
2023/07/18 11:00:57;;;;;;;;;;;;;;;;;;4896363;29;19931;-80
2023/07/18 11:03:35;;;;;;;;;;;;;;;;;;4869730;29;19935;-79
2023/07/18 11:06:09;;;;;;;;;;;;;;;;;;4892844;29;19934;-81
2023/07/18 11:08:41;;;;;;;;;;;;;;;;;;4894305;29;20459;-79
2023/07/18 11:11:09;;;;;;;;;;;;;;;;;;4895375;29;20473;-80
2023/07/18 11:13:37;;;;;;;;;;;;;;;;;;4893019;29;19935;-79
2023/07/18 11:16:09;;;;;;;;;;;;;;;;;;4890468;29;19935;-80
2023/07/18 11:18:37;;;;;;;;;;;;;;;;;;4895805;29;21418;-78
2023/07/18 11:21:04;;;;;;;;;;;;;;;;;;4892070;29;19935;-81
2023/07/18 11:23:32;;;;;;;;;;;;;;;;;;4892295;29;19935;-82
2023/07/18 11:26:00;;;;;;;;;;;;;;;;;;4892557;29;20709;-81
2023/07/18 11:28:32;;;;;;;;;;;;;;;;;;4893616;29;19935;-80
2023/07/18 11:31:05;;;;;;;;;;;;;;;;;;4893694;29;19942;-81
2023/07/18 11:33:37;;;;;;;;;;;;;;;;;;4894199;29;20304;-80
2023/07/18 11:36:05;;;;;;;;;;;;;;;;;;4890962;29;19942;-83
2023/07/18 11:38:32;;;;;;;;;;;;;;;;;;4888383;29;19942;-78
2023/07/18 11:41:00;;;;;;;;;;;;;;;;;;4895842;29;19935;-79
2023/07/18 11:43:33;;;;;;;;;;;;;;;;;;4894555;29;19935;-81
2023/07/18 11:46:01;;;;;;;;;;;;;;;;;;4896514;29;19935;-81
2023/07/18 11:48:28;;;;;;;;;;;;;;;;;;4900910;29;19946;-81
2023/07/18 11:50:56;;;;;;;;;;;;;;;;;;4888802;29;20991;-81
2023/07/18 11:53:28;;;;;;;;;;;;;;;;;;4894724;29;19943;-80
2023/07/18 11:55:56;;;;;;;;;;;;;;;;;;4893746;29;19935;-82
2023/07/18 11:58:24;;;;;;;;;;;;;;;;;;4893612;29;20585;-78
2023/07/18 12:00:52;;;;;;;;;;;;;;;;;;4891990;29;19935;-81
2023/07/18 12:03:19;;;;;;;;;;;;;;;;;;4865092;29;19935;-80
2023/07/18 12:05:52;;;;;;;;;;;;;;;;;;4889678;29;19942;-81
2023/07/18 12:08:25;;;;;;;;;;;;;;;;;;4892199;29;19931;-81
2023/07/18 12:10:52;;;;;;;;;;;;;;;;;;4887434;29;19939;-79
2023/07/18 12:13:20;;;;;;;;;;;;;;;;;;4896798;29;19935;-81
2023/07/18 12:15:47;;;;;;;;;;;;;;;;;;4894538;29;19957;-82
2023/07/18 12:18:20;;;;;;;;;;;;;;;;;;4897395;29;20465;-81
2023/07/18 12:20:48;;;;;;;;;;;;;;;;;;4898839;29;19942;-80
2023/07/18 12:23:16;;;;;;;;;;;;;;;;;;4893643;29;19942;-82
2023/07/18 12:25:48;;;;;;;;;;;;;;;;;;4893114;29;19935;-80
2023/07/18 12:28:16;;;;;;;;;;;;;;;;;;4892992;29;19935;-82
2023/07/18 12:30:48;;;;;;;;;;;;;;;;;;4899245;29;19941;-79
2023/07/18 12:33:18;;;;;;;;;;;;;;;;;;4901862;29;19935;-80
2023/07/18 12:35:46;;;;;;;;;;;;;;;;;;4886185;29;20378;-80
2023/07/18 12:38:13;;;;;;;;;;;;;;;;;;4890845;29;19941;-82
2023/07/18 12:40:41;;;;;;;;;;;;;;;;;;4893542;29;19935;-81
2023/07/18 12:43:08;;;;;;;;;;;;;;;;;;4894463;29;19942;-81
2023/07/18 12:45:36;;;;;;;;;;;;;;;;;;4891584;29;19935;-81
2023/07/18 12:48:08;;;;;;;;;;;;;;;;;;4898932;29;19939;-81
2023/07/18 12:50:36;;;;;;;;;;;;;;;;;;4894748;29;19931;-81
2023/07/18 12:53:03;;;;;;;;;;;;;;;;;;4895602;29;19939;-81
2023/07/18 12:55:31;;;;;;;;;;;;;;;;;;4894975;29;19935;-80
2023/07/18 12:57:58;;;;;;;;;;;;;;;;;;4898336;29;19935;-83
2023/07/18 13:00:26;;;;;;;;;;;;;;;;;;4892740;29;20574;-81
2023/07/18 13:02:55;;;;;;;;;;;;;;;;;;4866545;29;19942;-82
2023/07/18 13:05:23;;;;;;;;;;;;;;;;;;4889332;29;20383;-81
2023/07/18 13:07:50;;;;;;;;;;;;;;;;;;4887170;29;19982;-80
2023/07/18 13:10:23;;;;;;;;;;;;;;;;;;4890479;29;19935;-81
2023/07/18 13:12:50;;;;;;;;;;;;;;;;;;4891387;29;19935;-80
2023/07/18 13:15:18;;;;;;;;;;;;;;;;;;4892115;29;19946;-81
2023/07/18 13:17:51;;;;;;;;;;;;;;;;;;4889051;29;20372;-81
2023/07/18 13:20:23;;;;;;;;;;;;;;;;;;4891301;29;19935;-80
2023/07/18 13:22:51;;;;;;;;;;;;;;;;;;4891140;29;19935;-82
2023/07/18 13:25:18;;;;;;;;;;;;;;;;;;4889451;29;20481;-79
2023/07/18 13:27:46;;;;;;;;;;;;;;;;;;4894162;29;19946;-82
2023/07/18 13:30:13;;;;;;;;;;;;;;;;;;4891771;29;20327;-80
2023/07/18 13:32:41;;;;;;;;;;;;;;;;;;4892430;29;19942;-83
2023/07/18 13:35:09;;;;;;;;;;;;;;;;;;4893637;29;19958;-79
2023/07/18 13:37:36;;;;;;;;;;;;;;;;;;4889817;29;19935;-80
2023/07/18 13:40:04;;;;;;;;;;;;;;;;;;4889658;29;19934;-82
2023/07/18 13:42:31;;;;;;;;;;;;;;;;;;4889216;29;19935;-83
2023/07/18 13:45:07;;;;;;;;;;;;;;;;;;4891556;29;19946;-82
2023/07/18 13:47:35;;;;;;;;;;;;;;;;;;4875793;29;19935;-82
2023/07/18 13:50:02;;;;;;;;;;;;;;;;;;4890407;29;19942;-80
2023/07/18 13:52:35;;;;;;;;;;;;;;;;;;4890087;29;19939;-80
2023/07/18 13:55:02;;;;;;;;;;;;;;;;;;4887913;29;20029;-82
2023/07/18 13:57:30;;;;;;;;;;;;;;;;;;4890351;29;21621;-82
2023/07/18 13:59:57;;;;;;;;;;;;;;;;;;4890384;29;19935;-78
2023/07/18 14:02:39;;;;;;;;;;;;;;;;;;4870259;29;19997;-81
2023/07/18 14:05:06;;;;;;;;;;;;;;;;;;4889383;29;19935;-83
2023/07/18 14:07:34;;;;;;;;;;;;;;;;;;4888622;29;19942;-81
2023/07/18 14:10:02;;;;;;;;;;;;;;;;;;4892722;29;19942;-83
2023/07/18 14:12:30;;;;;;;;;;;;;;;;;;4891048;29;20505;-81
2023/07/18 14:14:58;;;;;;;;;;;;;;;;;;4900967;29;19935;-78
2023/07/18 14:17:26;;;;;;;;;;;;;;;;;;4887145;29;19934;-81
2023/07/18 14:19:53;;;;;;;;;;;;;;;;;;4897051;29;20733;-80
2023/07/18 14:22:21;;;;;;;;;;;;;;;;;;4895416;29;19931;-80
2023/07/18 14:24:50;;;;;;;;;;;;;;;;;;4891436;29;21500;-80
2023/07/18 14:27:22;;;;;;;;;;;;;;;;;;4880103;29;19946;-82
2023/07/18 14:29:49;;;;;;;;;;;;;;;;;;4889915;29;19935;-83
2023/07/18 14:32:17;;;;;;;;;;;;;;;;;;4892272;29;19942;-82
2023/07/18 14:34:50;;;;;;;;;;;;;;;;;;4894679;29;19943;-80
2023/07/18 14:37:17;;;;;;;;;;;;;;;;;;4891348;29;19935;-82
2023/07/18 14:39:45;;;;;;;;;;;;;;;;;;4894685;29;19935;-83
2023/07/18 14:42:17;;;;;;;;;;;;;;;;;;4893127;29;20359;-80
2023/07/18 14:44:45;;;;;;;;;;;;;;;;;;4902608;29;19935;-78
2023/07/18 14:47:12;;;;;;;;;;;;;;;;;;4877465;29;19931;-79
2023/07/18 14:49:40;;;;;;;;;;;;;;;;;;4887279;29;19935;-79
2023/07/18 14:52:07;;;;;;;;;;;;;;;;;;4893516;29;21732;-78
2023/07/18 14:54:35;;;;;;;;;;;;;;;;;;4889358;29;19935;-79
2023/07/18 14:57:02;;;;;;;;;;;;;;;;;;4893394;29;19935;-80
2023/07/18 14:59:30;;;;;;;;;;;;;;;;;;4891173;29;19935;-80
2023/07/18 15:01:58;;;;;;;;;;;;;;;;;;4865192;29;20284;-80
2023/07/18 15:04:25;;;;;;;;;;;;;;;;;;4883038;29;19935;-83
2023/07/18 15:06:53;;;;;;;;;;;;;;;;;;4887243;29;19935;-83
2023/07/18 15:09:29;;;;;;;;;;;;;;;;;;4885470;29;19934;-80
2023/07/18 15:12:05;;;;;;;;;;;;;;;;;;4891762;29;19935;-79
2023/07/18 15:14:33;;;;;;;;;;;;;;;;;;4876052;29;19935;-78
2023/07/18 15:17:06;;;;;;;;;;;;;;;;;;4890872;29;19935;-81
2023/07/18 15:19:33;;;;;;;;;;;;;;;;;;4898827;29;21931;-79
2023/07/18 15:22:01;;;;;;;;;;;;;;;;;;4895721;29;20388;-79
2023/07/18 15:24:29;;;;;;;;;;;;;;;;;;4891492;29;19935;-78
2023/07/18 15:26:56;;;;;;;;;;;;;;;;;;4902690;29;19935;-79
2023/07/18 15:29:24;;;;;;;;;;;;;;;;;;4893664;29;20285;-80
2023/07/18 15:31:51;;;;;;;;;;;;;;;;;;4899740;29;19931;-78
2023/07/18 15:34:19;;;;;;;;;;;;;;;;;;4886490;29;19942;-77
2023/07/18 15:36:46;;;;;;;;;;;;;;;;;;4905039;29;19927;-78
2023/07/18 15:39:14;;;;;;;;;;;;;;;;;;4896880;29;20506;-80
2023/07/18 15:41:46;;;;;;;;;;;;;;;;;;4890400;29;20427;-79
2023/07/18 15:44:14;;;;;;;;;;;;;;;;;;4878235;29;19931;-77
2023/07/18 15:46:41;;;;;;;;;;;;;;;;;;4891607;29;19935;-80
2023/07/18 15:49:09;;;;;;;;;;;;;;;;;;4891346;29;19935;-79
2023/07/18 15:51:41;;;;;;;;;;;;;;;;;;4895533;29;20021;-79
2023/07/18 15:54:14;;;;;;;;;;;;;;;;;;4876116;29;20323;-79
2023/07/18 15:56:42;;;;;;;;;;;;;;;;;;4894617;29;20894;-80
2023/07/18 15:59:10;;;;;;;;;;;;;;;;;;4891178;29;19935;-78
2023/07/18 16:01:37;;;;;;;;;;;;;;;;;;4866395;29;20020;-80
2023/07/18 16:04:06;;;;;;;;;;;;;;;;;;4889984;29;19935;-78
2023/07/18 16:06:33;;;;;;;;;;;;;;;;;;4891992;29;19935;-80
2023/07/18 16:09:02;;;;;;;;;;;;;;;;;;4896854;29;19942;-81
2023/07/18 16:11:30;;;;;;;;;;;;;;;;;;4893747;29;19943;-78
2023/07/18 16:14:02;;;;;;;;;;;;;;;;;;4890166;29;20982;-78
2023/07/18 16:16:30;;;;;;;;;;;;;;;;;;4918463;29;19930;-76
2023/07/18 16:18:58;;;;;;;;;;;;;;;;;;4925519;29;20677;-77
2023/07/18 16:21:25;;;;;;;;;;;;;;;;;;4927150;29;19934;-77
2023/07/18 16:23:53;;;;;;;;;;;;;;;;;;4909148;29;20284;-77
2023/07/18 16:26:20;;;;;;;;;;;;;;;;;;4907025;29;20247;-76
2023/07/18 16:28:48;;;;;;;;;;;;;;;;;;4907062;29;19938;-77
2023/07/18 16:31:16;;;;;;;;;;;;;;;;;;4920232;29;19953;-77
2023/07/18 16:33:48;;;;;;;;;;;;;;;;;;4918248;29;19931;-79
2023/07/18 16:36:16;;;;;;;;;;;;;;;;;;4907080;29;19935;-77
2023/07/18 16:38:43;;;;;;;;;;;;;;;;;;4922599;29;19927;-78
2023/07/18 16:41:11;;;;;;;;;;;;;;;;;;4918797;29;20388;-78
2023/07/18 16:43:38;;;;;;;;;;;;;;;;;;4905602;29;20372;-77
2023/07/18 16:46:06;;;;;;;;;;;;;;;;;;4907233;29;20482;-78
2023/07/18 16:48:33;;;;;;;;;;;;;;;;;;4921909;29;19931;-77
2023/07/18 16:51:01;;;;;;;;;;;;;;;;;;4923862;29;19934;-77
2023/07/18 16:53:29;;;;;;;;;;;;;;;;;;4924976;29;19934;-78
2023/07/18 16:55:56;;;;;;;;;;;;;;;;;;4918498;29;19927;-78